Time;durP1;ratioP1;P1;durP2;ratioP2;P2;SDS_P1;SDS_P2;PMS_P1;PMS_P2;Temp;Humidity;BMP_temperature;BMP_pressure;BME280_temperature;BME280_humidity;BME280_pressure;Samples;Min_cycle;Max_cycle;Signal;HPM_P1;HPM_P2
2023/08/01 00:00:33;;;;;;;1.30;0.90;;;15.90;99.90;;;;;;5033696;28;20029;-86
2023/08/01 00:02:59;;;;;;;1.25;1.15;;;15.80;99.90;;;;;;5047160;28;20635;-85
2023/08/01 00:05:24;;;;;;;1.40;1.00;;;15.90;99.90;;;;;;5031651;28;20068;-86
2023/08/01 00:24:41;;;;;;;1.90;1.70;;;15.90;99.90;;;;;;5031281;28;20399;-84
2023/08/01 00:27:09;;;;;;;1.60;1.50;;;15.90;99.90;;;;;;5037188;28;20104;-85
2023/08/01 00:29:37;;;;;;;2.85;2.08;;;15.90;99.90;;;;;;5047660;28;20025;-85
2023/08/01 00:32:03;;;;;;;2.30;1.88;;;15.90;99.90;;;;;;5032921;28;20057;-85
2023/08/01 00:34:28;;;;;;;2.55;2.35;;;15.90;99.90;;;;;;5043076;28;20665;-85
2023/08/01 00:36:54;;;;;;;2.08;1.88;;;15.90;99.90;;;;;;5028144;28;20022;-86
2023/08/01 00:39:19;;;;;;;2.13;1.92;;;15.90;99.90;;;;;;5036264;28;20079;-87
2023/08/01 00:41:45;;;;;;;2.03;1.83;;;15.90;99.90;;;;;;5047581;28;20433;-86
2023/08/01 00:44:10;;;;;;;1.75;1.65;;;15.90;99.90;;;;;;5048715;28;20070;-86
2023/08/01 00:46:36;;;;;;;2.00;1.80;;;15.90;99.90;;;;;;5042388;28;20112;-85
2023/08/01 00:49:03;;;;;;;2.80;2.00;;;15.90;99.90;;;;;;5049080;28;20013;-84
2023/08/01 00:51:30;;;;;;;2.80;1.95;;;15.90;99.90;;;;;;5036572;28;20034;-84
2023/08/01 00:53:55;;;;;;;2.00;1.60;;;15.80;99.90;;;;;;5033220;28;20025;-84
2023/08/01 00:56:21;;;;;;;1.55;1.45;;;15.90;99.90;;;;;;5036251;28;20388;-84
2023/08/01 00:58:47;;;;;;;3.17;2.10;;;15.80;99.90;;;;;;5030880;28;20746;-84
2023/08/01 01:01:12;;;;;;;1.52;1.42;;;15.80;99.90;;;;;;5031378;28;20037;-84
2023/08/01 01:03:39;;;;;;;1.30;1.10;;;15.70;99.90;;;;;;5045654;28;20098;-85
2023/08/01 01:06:34;;;;;;;1.27;1.17;;;15.70;99.90;;;;;;5035359;28;20044;-84
2023/08/01 01:08:59;;;;;;;1.25;1.15;;;15.70;99.90;;;;;;5031855;28;20079;-85
2023/08/01 01:11:25;;;;;;;2.80;1.65;;;15.70;99.90;;;;;;5035841;28;20061;-85
2023/08/01 01:13:52;;;;;;;1.63;1.42;;;15.70;99.90;;;;;;5037133;28;20381;-85
2023/08/01 01:16:19;;;;;;;1.70;1.20;;;15.70;99.90;;;;;;5045164;28;20029;-85
2023/08/01 01:18:44;;;;;;;1.70;1.60;;;15.70;99.90;;;;;;5046269;28;20025;-85
2023/08/01 01:22:17;;;;;;;1.70;1.50;;;15.60;99.90;;;;;;5048233;28;20476;-85
2023/08/01 01:24:43;;;;;;;1.80;1.35;;;15.60;99.90;;;;;;4992681;28;20034;-85
2023/08/01 01:27:09;;;;;;;2.33;1.48;;;15.60;99.90;;;;;;5048722;28;20066;-85
2023/08/01 01:29:36;;;;;;;2.63;1.40;;;15.60;99.90;;;;;;5038319;28;20037;-85
2023/08/01 01:32:03;;;;;;;1.17;1.08;;;15.60;99.90;;;;;;5029539;28;20041;-85
2023/08/01 01:34:29;;;;;;;1.33;1.23;;;15.60;99.90;;;;;;5037834;28;20033;-84
2023/08/01 01:36:55;;;;;;;1.65;1.40;;;15.60;99.90;;;;;;5028499;28;20026;-85
2023/08/01 01:39:20;;;;;;;1.20;1.10;;;15.50;99.90;;;;;;5038047;28;20025;-85
2023/08/01 01:41:46;;;;;;;1.63;1.10;;;15.50;99.90;;;;;;5052287;28;20427;-86
2023/08/01 01:44:12;;;;;;;1.55;1.45;;;15.60;99.90;;;;;;5042509;28;20379;-85
2023/08/01 01:46:37;;;;;;;2.75;1.38;;;15.50;99.90;;;;;;5041837;28;20021;-86
2023/08/01 01:49:03;;;;;;;1.65;1.23;;;15.50;99.90;;;;;;5048096;28;20021;-86
2023/08/01 01:51:29;;;;;;;1.35;1.25;;;15.50;99.90;;;;;;5030504;28;20037;-86
2023/08/01 01:53:55;;;;;;;1.95;1.42;;;15.50;99.90;;;;;;5030823;28;20052;-85
2023/08/01 01:56:20;;;;;;;3.30;1.65;;;15.50;99.90;;;;;;5035827;28;20475;-86
2023/08/01 01:58:46;;;;;;;1.67;1.58;;;15.40;99.90;;;;;;5040245;28;20025;-86
2023/08/01 02:01:12;;;;;;;3.20;1.85;;;15.40;99.90;;;;;;5034021;28;20096;-86
2023/08/01 02:03:37;;;;;;;2.50;2.30;;;15.40;99.90;;;;;;5036199;28;20044;-86
2023/08/01 02:06:03;;;;;;;2.47;2.28;;;15.40;99.90;;;;;;5031906;28;20021;-86
2023/08/01 02:08:29;;;;;;;2.80;2.60;;;15.40;99.90;;;;;;5037219;28;20116;-86
2023/08/01 02:10:58;;;;;;;2.13;1.80;;;15.40;99.90;;;;;;5037999;28;20021;-86
2023/08/01 02:13:28;;;;;;;3.00;2.60;;;15.40;99.90;;;;;;5031457;28;20029;-86
2023/08/01 02:15:54;;;;;;;3.47;2.90;;;15.40;99.90;;;;;;5024414;28;20071;-86
2023/08/01 02:18:20;;;;;;;3.20;3.00;;;15.40;99.90;;;;;;5033416;28;20036;-86
2023/08/01 02:20:45;;;;;;;3.40;3.10;;;15.40;99.90;;;;;;5038430;28;20566;-86
2023/08/01 02:23:14;;;;;;;3.08;2.88;;;15.40;99.90;;;;;;5041307;28;20112;-86
2023/08/01 02:25:40;;;;;;;5.47;3.42;;;15.50;99.90;;;;;;5036997;28;20056;-86
2023/08/01 02:28:06;;;;;;;3.95;3.50;;;15.50;99.90;;;;;;5033675;28;20025;-86
2023/08/01 02:30:32;;;;;;;4.28;3.88;;;15.50;99.90;;;;;;5037282;28;20099;-86
2023/08/01 02:32:58;;;;;;;6.22;3.97;;;15.50;99.90;;;;;;5033741;28;20364;-86
2023/08/01 02:35:23;;;;;;;7.43;4.82;;;15.50;99.90;;;;;;5034459;28;20144;-86
2023/08/01 02:37:49;;;;;;;4.43;4.03;;;15.50;99.90;;;;;;5030304;28;20045;-86
2023/08/01 02:40:14;;;;;;;6.03;5.43;;;15.50;99.90;;;;;;5034633;28;20079;-86
2023/08/01 02:42:40;;;;;;;6.78;5.00;;;15.50;99.90;;;;;;5040729;28;20040;-86
2023/08/01 02:45:06;;;;;;;5.80;5.20;;;15.50;99.90;;;;;;5040522;28;20061;-87
2023/08/01 02:47:32;;;;;;;7.32;6.50;;;15.60;99.90;;;;;;5032312;28;20091;-87
2023/08/01 02:49:57;;;;;;;7.50;6.72;;;15.60;99.90;;;;;;5038711;28;20438;-86
2023/08/01 02:52:23;;;;;;;7.57;6.88;;;15.60;99.90;;;;;;5043704;28;20029;-87
2023/08/01 02:54:48;;;;;;;7.97;7.00;;;15.60;99.90;;;;;;5037496;28;20565;-86
2023/08/01 02:57:14;;;;;;;7.45;6.75;;;15.60;99.90;;;;;;5031423;28;20034;-87
2023/08/01 02:59:39;;;;;;;7.38;6.57;;;15.60;99.90;;;;;;5056731;28;20042;-86
2023/08/01 03:02:05;;;;;;;7.00;6.30;;;15.60;99.90;;;;;;5045768;28;20060;-86
2023/08/01 03:04:31;;;;;;;11.75;8.40;;;15.60;99.90;;;;;;5037525;28;20499;-85
2023/08/01 03:06:56;;;;;;;7.82;6.63;;;15.60;99.90;;;;;;5039241;28;20392;-86
2023/08/01 03:09:22;;;;;;;8.68;7.78;;;15.70;99.90;;;;;;5045257;28;20029;-87
2023/08/01 03:11:47;;;;;;;8.05;7.25;;;15.70;99.90;;;;;;5035576;28;20022;-87
2023/08/01 03:14:13;;;;;;;8.77;7.63;;;15.70;99.90;;;;;;5038601;28;20013;-87
2023/08/01 03:16:39;;;;;;;11.10;8.57;;;15.70;99.90;;;;;;5030522;28;20045;-87
2023/08/01 03:19:04;;;;;;;10.15;9.10;;;15.70;99.90;;;;;;5028715;28;20017;-86
2023/08/01 03:21:34;;;;;;;7.75;6.65;;;15.70;99.90;;;;;;5045207;28;20498;-87
2023/08/01 03:24:00;;;;;;;8.73;7.82;;;15.70;99.90;;;;;;5038659;28;20036;-88
2023/08/01 03:26:28;;;;;;;11.93;8.57;;;15.70;99.90;;;;;;5037107;28;20740;-87
2023/08/01 03:28:55;;;;;;;9.98;8.98;;;15.70;99.90;;;;;;5037561;28;20044;-87
2023/08/01 03:31:21;;;;;;;10.15;7.47;;;15.70;99.90;;;;;;5037644;28;20081;-87
2023/08/01 03:33:47;;;;;;;10.77;9.68;;;15.70;99.90;;;;;;5052697;28;20060;-88
2023/08/01 03:36:13;;;;;;;10.65;8.68;;;15.70;99.90;;;;;;5034408;28;20499;-87
2023/08/01 03:38:39;;;;;;;9.68;8.77;;;15.70;99.90;;;;;;5049844;28;21085;-87
2023/08/01 03:41:04;;;;;;;10.63;8.57;;;15.80;99.90;;;;;;5036019;28;20057;-87
2023/08/01 03:43:30;;;;;;;11.15;8.55;;;15.80;99.90;;;;;;5034068;28;20029;-87
2023/08/01 03:45:56;;;;;;;9.15;8.25;;;15.70;99.90;;;;;;5046379;28;20014;-88
2023/08/01 03:48:22;;;;;;;10.23;8.93;;;15.80;99.90;;;;;;5041530;28;20830;-87
2023/08/01 03:50:47;;;;;;;10.48;8.98;;;15.80;99.90;;;;;;5025610;28;20021;-87
2023/08/01 03:53:13;;;;;;;10.35;9.35;;;15.80;99.90;;;;;;5039756;28;20392;-87
2023/08/01 03:55:39;;;;;;;11.98;10.32;;;15.80;99.90;;;;;;5036107;28;20033;-85
2023/08/01 03:58:05;;;;;;;13.48;10.93;;;15.80;99.90;;;;;;5045415;28;20045;-84
2023/08/01 04:00:32;;;;;;;12.48;11.13;;;15.80;99.90;;;;;;5036386;28;20041;-87
2023/08/01 04:02:59;;;;;;;10.75;9.27;;;15.80;99.90;;;;;;5039409;28;20025;-87
2023/08/01 04:05:24;;;;;;;13.70;10.35;;;15.80;99.90;;;;;;5033932;28;20029;-87
2023/08/01 04:07:50;;;;;;;12.50;10.68;;;15.80;99.90;;;;;;5041850;28;20112;-88
2023/08/01 04:10:16;;;;;;;12.95;10.30;;;15.80;99.90;;;;;;5035162;28;20025;-87
2023/08/01 04:12:42;;;;;;;11.38;10.18;;;15.80;99.90;;;;;;5030602;28;20030;-87
2023/08/01 04:15:09;;;;;;;13.27;9.70;;;15.80;99.90;;;;;;5040399;28;20084;-87
2023/08/01 04:17:34;;;;;;;10.77;9.38;;;15.80;99.90;;;;;;5040535;28;20036;-87
2023/08/01 04:20:00;;;;;;;13.32;9.68;;;15.90;99.90;;;;;;5034417;28;20020;-87
2023/08/01 04:22:26;;;;;;;13.73;10.35;;;15.80;99.90;;;;;;5037119;28;20034;-88
2023/08/01 04:24:51;;;;;;;11.95;9.40;;;15.90;99.90;;;;;;5048645;28;20021;-87
2023/08/01 04:27:17;;;;;;;11.05;9.75;;;15.90;99.90;;;;;;5026613;28;20026;-87
2023/08/01 04:29:43;;;;;;;14.50;10.23;;;15.90;99.90;;;;;;5025064;28;20111;-88
2023/08/01 04:32:08;;;;;;;13.63;11.65;;;15.90;99.90;;;;;;5034836;28;21873;-88
2023/08/01 04:34:34;;;;;;;12.95;11.13;;;15.90;99.90;;;;;;5034193;28;20033;-87
2023/08/01 04:37:00;;;;;;;12.02;10.65;;;15.90;99.90;;;;;;5039835;28;20080;-87
2023/08/01 04:39:26;;;;;;;13.05;10.88;;;15.90;99.90;;;;;;5032960;28;20029;-86
2023/08/01 04:41:52;;;;;;;9.88;8.65;;;15.90;99.90;;;;;;5046008;28;20365;-87
2023/08/01 04:44:20;;;;;;;13.32;10.80;;;15.90;99.90;;;;;;5031305;28;20025;-87
2023/08/01 04:46:48;;;;;;;11.07;9.98;;;15.90;99.90;;;;;;5041617;28;20052;-88
2023/08/01 04:49:13;;;;;;;10.80;9.70;;;15.90;99.90;;;;;;5037900;28;20018;-87
2023/08/01 04:51:39;;;;;;;12.32;10.77;;;15.90;99.90;;;;;;5036629;28;20104;-86
2023/08/01 04:54:05;;;;;;;11.18;9.95;;;15.90;99.90;;;;;;5036371;28;20475;-87
2023/08/01 04:56:30;;;;;;;13.00;10.25;;;15.90;99.90;;;;;;5035274;28;20089;-87
2023/08/01 04:58:56;;;;;;;12.98;10.18;;;15.90;99.90;;;;;;5041228;28;20124;-87
2023/08/01 05:01:22;;;;;;;14.55;11.30;;;15.90;99.90;;;;;;5026011;28;20435;-88
2023/08/01 05:03:48;;;;;;;11.48;10.35;;;15.90;99.90;;;;;;5034245;28;20059;-87
2023/08/01 05:06:16;;;;;;;14.57;13.02;;;15.90;99.90;;;;;;5040343;28;20360;-87
2023/08/01 05:08:42;;;;;;;12.25;9.98;;;15.90;99.90;;;;;;5039751;28;20052;-88
2023/08/01 05:11:08;;;;;;;13.90;10.45;;;15.90;99.90;;;;;;5039540;28;20052;-87
2023/08/01 05:13:34;;;;;;;11.05;9.80;;;15.90;99.90;;;;;;5031242;28;20048;-87
2023/08/01 05:15:59;;;;;;;12.70;9.80;;;15.90;99.90;;;;;;5037219;28;20053;-86
2023/08/01 05:18:25;;;;;;;10.82;9.73;;;15.90;99.90;;;;;;5025714;28;20021;-87
2023/08/01 05:20:56;;;;;;;14.23;10.18;;;15.90;99.90;;;;;;5040359;28;20024;-87
2023/08/01 05:23:22;;;;;;;11.05;9.60;;;16.00;99.90;;;;;;5029115;28;20038;-86
2023/08/01 05:25:48;;;;;;;11.55;9.13;;;16.00;99.90;;;;;;5033874;28;20044;-87
2023/08/01 05:28:14;;;;;;;11.38;9.40;;;16.00;99.90;;;;;;5037736;28;20047;-87
2023/08/01 05:30:40;;;;;;;15.88;10.90;;;16.00;99.90;;;;;;5036504;28;20022;-86
2023/08/01 05:33:06;;;;;;;13.00;9.75;;;15.90;99.90;;;;;;5037166;28;20025;-87
2023/08/01 05:35:31;;;;;;;11.43;9.57;;;15.90;99.90;;;;;;5038095;28;20083;-86
2023/08/01 05:37:57;;;;;;;10.43;9.32;;;15.90;99.90;;;;;;5038765;28;20029;-86
2023/08/01 05:40:23;;;;;;;13.05;9.98;;;15.90;99.90;;;;;;5036650;28;20024;-86
2023/08/01 05:42:48;;;;;;;16.08;10.10;;;15.90;99.90;;;;;;5034046;28;20033;-87
2023/08/01 05:45:14;;;;;;;9.32;8.43;;;15.90;99.90;;;;;;5041306;28;20102;-85
2023/08/01 05:47:40;;;;;;;10.57;9.50;;;15.90;99.90;;;;;;5031113;28;20018;-86
2023/08/01 05:50:07;;;;;;;12.85;8.88;;;15.90;99.90;;;;;;5028222;28;20057;-86
2023/08/01 05:52:35;;;;;;;16.48;9.25;;;15.90;99.90;;;;;;5035569;28;20492;-86
2023/08/01 05:55:01;;;;;;;9.05;8.10;;;15.90;99.90;;;;;;5028016;28;20030;-86
2023/08/01 05:57:27;;;;;;;8.95;7.70;;;15.90;99.90;;;;;;5034164;28;20079;-86
2023/08/01 05:59:53;;;;;;;9.40;7.95;;;15.90;99.90;;;;;;5037088;28;20025;-86
2023/08/01 06:02:18;;;;;;;8.27;6.93;;;16.00;99.90;;;;;;5041431;28;20094;-87
2023/08/01 06:04:44;;;;;;;8.80;7.20;;;16.00;99.90;;;;;;5019202;28;20030;-86
2023/08/01 06:07:10;;;;;;;8.40;7.35;;;16.00;99.90;;;;;;5027981;28;20048;-86
2023/08/01 06:09:35;;;;;;;10.75;8.10;;;16.00;99.90;;;;;;5030848;28;20523;-86
2023/08/01 06:12:01;;;;;;;9.60;6.63;;;16.00;99.90;;;;;;5027775;28;20021;-86
2023/08/01 06:14:27;;;;;;;13.48;7.40;;;16.00;99.90;;;;;;5043835;28;20025;-87
2023/08/01 06:16:52;;;;;;;7.75;6.80;;;16.00;99.90;;;;;;5036153;28;20124;-86
2023/08/01 06:19:18;;;;;;;7.57;6.82;;;16.00;99.90;;;;;;5042734;28;20036;-85
2023/08/01 06:21:43;;;;;;;9.27;6.97;;;16.10;99.90;;;;;;5032128;28;20155;-84
2023/08/01 06:24:10;;;;;;;7.57;6.40;;;16.20;99.90;;;;;;5026476;28;20021;-85
2023/08/01 06:26:35;;;;;;;7.93;6.22;;;16.20;99.90;;;;;;5033705;28;20022;-85
2023/08/01 06:29:01;;;;;;;7.40;5.45;;;16.30;99.90;;;;;;5032790;28;20029;-85
2023/08/01 06:31:29;;;;;;;8.27;5.70;;;16.40;99.90;;;;;;5036047;28;20037;-86
2023/08/01 06:33:55;;;;;;;10.57;6.15;;;16.40;99.90;;;;;;5034754;28;20029;-85
2023/08/01 06:36:20;;;;;;;10.43;5.72;;;16.40;99.90;;;;;;5043506;28;20017;-85
2023/08/01 06:38:46;;;;;;;8.70;5.93;;;16.40;99.90;;;;;;5035786;28;20021;-85
2023/08/01 06:41:12;;;;;;;6.47;5.50;;;16.50;99.90;;;;;;5034114;28;20160;-84
2023/08/01 06:43:38;;;;;;;7.70;4.65;;;16.50;99.90;;;;;;5035793;28;20022;-84
2023/08/01 06:46:04;;;;;;;9.23;5.05;;;16.50;99.90;;;;;;5052297;28;20025;-84
2023/08/01 06:48:30;;;;;;;7.90;5.45;;;16.50;99.90;;;;;;5045145;28;20025;-85
2023/08/01 06:50:56;;;;;;;7.15;4.78;;;16.50;99.90;;;;;;5035791;28;20059;-85
2023/08/01 06:53:22;;;;;;;7.28;4.55;;;16.50;99.90;;;;;;5026628;28;20033;-84
2023/08/01 06:55:47;;;;;;;8.52;4.47;;;16.50;99.90;;;;;;5047353;28;20124;-84
2023/08/01 06:58:13;;;;;;;10.80;5.00;;;16.50;99.90;;;;;;5029321;28;20243;-84
2023/08/01 07:00:39;;;;;;;5.30;3.67;;;16.50;99.90;;;;;;5030058;28;20251;-83
2023/08/01 07:03:04;;;;;;;5.80;3.85;;;16.50;99.90;;;;;;5042086;28;20032;-85
2023/08/01 07:05:30;;;;;;;5.43;3.90;;;16.50;99.90;;;;;;5020093;28;20457;-85
2023/08/01 07:07:57;;;;;;;5.75;3.35;;;16.50;99.90;;;;;;5038901;28;20097;-85
2023/08/01 07:10:22;;;;;;;5.60;3.58;;;16.50;99.90;;;;;;5034816;28;20018;-85
2023/08/01 07:12:48;;;;;;;5.18;3.47;;;16.50;99.90;;;;;;5034586;28;20047;-86
2023/08/01 07:15:14;;;;;;;4.85;3.50;;;16.60;99.90;;;;;;5033128;28;20467;-86
2023/08/01 07:17:39;;;;;;;6.20;3.90;;;16.60;99.90;;;;;;5033738;28;20078;-86
2023/08/01 07:20:05;;;;;;;5.47;3.30;;;16.60;99.90;;;;;;5048221;28;20383;-85
2023/08/01 07:22:31;;;;;;;3.78;3.38;;;16.60;99.90;;;;;;5041348;28;20056;-86
2023/08/01 07:24:56;;;;;;;4.60;3.22;;;16.60;99.90;;;;;;5050193;28;20036;-86
2023/08/01 07:27:22;;;;;;;5.93;3.72;;;16.60;99.90;;;;;;5029529;28;20037;-86
2023/08/01 07:29:48;;;;;;;7.72;3.30;;;16.70;99.90;;;;;;5031144;28;20030;-85
2023/08/01 07:32:14;;;;;;;8.68;3.92;;;16.60;99.90;;;;;;5042477;28;20040;-85
2023/08/01 07:34:40;;;;;;;5.65;3.78;;;16.60;99.90;;;;;;5047229;28;20506;-85
2023/08/01 07:37:05;;;;;;;5.97;3.58;;;16.60;99.90;;;;;;5030834;28;20026;-85
2023/08/01 07:39:34;;;;;;;6.22;3.40;;;16.70;99.90;;;;;;5031406;28;20033;-86
2023/08/01 07:42:00;;;;;;;5.57;3.17;;;16.70;99.90;;;;;;5037183;28;20403;-86
2023/08/01 07:44:26;;;;;;;7.68;3.63;;;16.80;99.90;;;;;;5036931;28;20025;-86
2023/08/01 07:46:51;;;;;;;4.47;3.72;;;16.80;99.90;;;;;;5034647;28;20032;-85
2023/08/01 07:49:17;;;;;;;4.32;2.85;;;16.90;99.90;;;;;;5038114;28;20104;-86
2023/08/01 07:51:42;;;;;;;5.32;3.55;;;16.90;99.90;;;;;;5038749;28;20033;-86
2023/08/01 07:54:08;;;;;;;4.20;2.83;;;16.90;99.90;;;;;;5036685;28;20052;-87
2023/08/01 07:56:34;;;;;;;7.95;3.60;;;17.00;99.90;;;;;;5051680;28;20017;-87
2023/08/01 07:58:59;;;;;;;4.78;4.05;;;17.00;99.90;;;;;;5043141;28;20530;-87
2023/08/01 08:01:25;;;;;;;7.05;3.92;;;17.10;99.90;;;;;;5040054;28;20586;-87
2023/08/01 08:03:51;;;;;;;4.90;3.40;;;17.30;99.90;;;;;;5042294;28;20415;-87
2023/08/01 08:06:17;;;;;;;4.85;4.15;;;17.40;99.90;;;;;;5030776;28;20396;-85
2023/08/01 08:08:42;;;;;;;6.13;3.42;;;17.50;99.90;;;;;;5032411;28;20028;-87
2023/08/01 08:11:08;;;;;;;4.93;3.60;;;17.70;99.90;;;;;;5043979;28;20021;-87
2023/08/01 08:13:33;;;;;;;6.45;3.78;;;17.70;99.90;;;;;;5039177;28;20025;-87
2023/08/01 08:15:59;;;;;;;6.90;3.80;;;17.80;99.90;;;;;;5040222;28;20053;-87
2023/08/01 08:18:26;;;;;;;9.98;3.70;;;17.80;99.90;;;;;;5030746;28;20079;-88
2023/08/01 08:20:52;;;;;;;4.63;3.60;;;17.80;99.90;;;;;;5031125;28;20047;-87
2023/08/01 08:23:18;;;;;;;10.18;3.95;;;17.70;99.90;;;;;;5036656;28;20021;-86
2023/08/01 08:25:46;;;;;;;4.25;3.28;;;17.70;99.90;;;;;;5040182;28;20025;-87
2023/08/01 08:28:13;;;;;;;5.43;3.95;;;17.70;99.90;;;;;;5022155;28;20029;-87
2023/08/01 08:30:39;;;;;;;5.50;3.67;;;17.70;99.90;;;;;;5026634;28;20423;-87
2023/08/01 08:33:06;;;;;;;4.75;3.97;;;17.70;99.90;;;;;;5034214;28;20041;-87
2023/08/01 08:35:35;;;;;;;7.93;3.58;;;17.80;99.90;;;;;;5029742;28;20171;-88
2023/08/01 08:38:03;;;;;;;5.20;4.03;;;18.00;99.90;;;;;;5035157;28;20120;-87
2023/08/01 08:40:31;;;;;;;6.15;3.88;;;18.30;99.90;;;;;;5039111;28;20025;-88
2023/08/01 08:43:03;;;;;;;4.97;2.70;;;18.40;99.90;;;;;;5035587;28;20018;-87
2023/08/01 08:45:33;;;;;;;6.18;3.10;;;18.30;99.90;;;;;;5028558;28;20442;-86
2023/08/01 08:48:04;;;;;;;3.97;3.10;;;18.40;99.90;;;;;;5030467;28;20051;-87
2023/08/01 08:50:31;;;;;;;4.53;2.80;;;18.60;99.90;;;;;;5029302;28;20026;-87
2023/08/01 08:52:58;;;;;;;5.00;2.33;;;18.60;99.90;;;;;;5038459;28;20188;-88
2023/08/01 08:55:26;;;;;;;4.05;2.75;;;18.50;99.90;;;;;;5028890;28;20026;-87
2023/08/01 08:57:52;;;;;;;5.18;2.53;;;18.40;99.90;;;;;;5028743;28;20079;-87
2023/08/01 09:00:21;;;;;;;5.60;3.60;;;18.40;99.90;;;;;;5028969;28;20029;-87
2023/08/01 09:02:47;;;;;;;6.30;3.20;;;18.50;99.90;;;;;;5038374;28;20021;-87
2023/08/01 09:05:13;;;;;;;10.27;3.00;;;18.50;99.90;;;;;;5028991;28;20021;-85
2023/08/01 09:07:42;;;;;;;3.13;2.60;;;18.40;99.90;;;;;;5031625;28;20356;-87
2023/08/01 09:10:08;;;;;;;4.20;2.88;;;18.40;99.90;;;;;;5038619;28;20021;-87
2023/08/01 09:12:35;;;;;;;4.30;2.75;;;18.40;99.90;;;;;;5039976;28;20040;-86
2023/08/01 09:15:01;;;;;;;5.75;3.17;;;18.30;99.90;;;;;;5040229;28;20033;-87
2023/08/01 09:17:26;;;;;;;3.53;2.38;;;18.10;99.90;;;;;;5037843;28;20029;-87
2023/08/01 09:20:02;;;;;;;5.20;2.60;;;18.10;99.90;;;;;;5041718;28;20075;-85
2023/08/01 09:22:28;;;;;;;6.95;2.60;;;17.90;99.90;;;;;;5035902;28;20075;-85
2023/08/01 09:24:54;;;;;;;2.85;1.83;;;17.80;99.90;;;;;;5034227;28;20488;-88
2023/08/01 09:27:22;;;;;;;3.92;2.05;;;17.60;99.90;;;;;;5014144;28;20061;-85
2023/08/01 09:29:48;;;;;;;4.18;2.10;;;17.50;99.90;;;;;;5032865;28;20187;-83
2023/08/01 09:32:14;;;;;;;7.50;2.53;;;17.40;99.90;;;;;;5037368;28;20125;-85
2023/08/01 09:34:42;;;;;;;3.08;1.98;;;17.30;99.90;;;;;;5037278;28;20511;-85
2023/08/01 09:37:08;;;;;;;4.50;2.38;;;17.30;99.90;;;;;;5036074;28;20021;-85
2023/08/01 09:39:33;;;;;;;3.67;2.22;;;17.30;99.90;;;;;;5036928;28;20028;-86
2023/08/01 09:42:01;;;;;;;4.45;2.95;;;17.30;99.90;;;;;;5031441;28;20033;-86
2023/08/01 09:44:28;;;;;;;3.50;2.65;;;17.40;99.90;;;;;;5031327;28;20018;-84
2023/08/01 09:47:00;;;;;;;4.15;2.40;;;17.40;99.90;;;;;;5042350;28;20029;-85
2023/08/01 09:49:28;;;;;;;4.13;2.60;;;17.70;99.90;;;;;;5035624;28;20109;-86
2023/08/01 09:51:54;;;;;;;4.05;3.08;;;17.90;99.90;;;;;;5027274;28;20018;-86
2023/08/01 09:54:21;;;;;;;3.90;2.38;;;18.10;99.90;;;;;;5029306;28;20026;-85
2023/08/01 09:56:49;;;;;;;5.05;2.67;;;18.20;99.90;;;;;;5030817;28;20638;-86
2023/08/01 09:59:25;;;;;;;3.88;2.30;;;18.20;99.90;;;;;;5037312;28;20013;-86
2023/08/01 10:01:53;;;;;;;5.40;2.50;;;18.30;99.90;;;;;;5030877;28;20041;-85
2023/08/01 10:04:30;;;;;;;6.55;3.45;;;18.40;99.90;;;;;;5031328;28;20025;-87
2023/08/01 10:07:05;;;;;;;4.43;2.38;;;18.50;99.90;;;;;;5035801;28;20021;-87
2023/08/01 10:09:31;;;;;;;4.53;2.63;;;18.60;99.90;;;;;;5036045;28;20192;-86
2023/08/01 10:11:58;;;;;;;3.40;2.58;;;18.60;99.90;;;;;;5037265;28;20017;-87
2023/08/01 10:14:25;;;;;;;4.95;2.53;;;18.70;99.90;;;;;;5040655;28;20021;-87
2023/08/01 10:16:52;;;;;;;4.43;2.22;;;18.90;99.90;;;;;;5032545;28;20034;-87
2023/08/01 10:19:19;;;;;;;3.67;2.22;;;18.90;99.90;;;;;;5026968;28;20037;-86
2023/08/01 10:21:46;;;;;;;2.65;2.05;;;19.00;99.90;;;;;;5030959;28;20553;-86
2023/08/01 10:24:14;;;;;;;2.30;1.98;;;19.00;99.90;;;;;;5040651;28;20031;-86
2023/08/01 10:26:39;;;;;;;3.97;3.15;;;18.90;99.90;;;;;;5030574;28;20018;-88
2023/08/01 10:29:05;;;;;;;3.40;1.90;;;18.90;99.90;;;;;;5027130;28;20088;-87
2023/08/01 10:31:31;;;;;;;2.22;1.48;;;18.80;99.90;;;;;;5035797;28;20140;-88
2023/08/01 10:34:13;;;;;;;3.38;1.42;;;18.70;99.90;;;;;;5030130;28;20055;-87
2023/08/01 10:36:39;;;;;;;2.50;1.48;;;18.70;99.90;;;;;;5027200;28;20032;-88
2023/08/01 10:39:05;;;;;;;3.22;1.73;;;18.80;99.90;;;;;;5027268;28;20022;-88
2023/08/01 10:41:35;;;;;;;4.15;1.70;;;18.90;99.90;;;;;;5043853;28;20433;-86
2023/08/01 10:44:11;;;;;;;3.13;1.60;;;19.00;99.90;;;;;;5038777;28;20075;-87
2023/08/01 10:46:46;;;;;;;2.28;1.30;;;19.20;99.90;;;;;;5045413;28;20029;-87
2023/08/01 10:49:12;;;;;;;1.67;1.45;;;19.10;99.90;;;;;;5042902;28;20510;-87
2023/08/01 10:51:38;;;;;;;1.13;1.02;;;19.00;99.90;;;;;;5036064;28;20049;-87
2023/08/01 10:54:03;;;;;;;4.45;1.40;;;18.90;99.90;;;;;;5038542;28;20029;-87
2023/08/01 10:56:31;;;;;;;1.70;1.20;;;18.90;99.90;;;;;;5040166;28;20064;-85
2023/08/01 10:58:57;;;;;;;2.08;1.20;;;18.70;99.90;;;;;;5033271;28;20026;-85
2023/08/01 11:01:23;;;;;;;1.50;1.13;;;18.60;99.90;;;;;;5037494;28;20046;-86
2023/08/01 11:03:48;;;;;;;1.73;0.90;;;18.40;99.90;;;;;;5030051;28;20029;-86
2023/08/01 11:06:14;;;;;;;2.40;0.85;;;18.20;99.90;;;;;;5053056;28;20629;-85
2023/08/01 11:08:43;;;;;;;0.95;0.60;;;18.00;99.90;;;;;;5042965;28;20013;-86
2023/08/01 11:11:12;;;;;;;0.60;0.60;;;17.80;99.90;;;;;;5055273;28;20026;-84
2023/08/01 11:13:41;;;;;;;0.60;0.60;;;17.70;99.90;;;;;;5037263;28;20026;-84
2023/08/01 11:16:07;;;;;;;0.63;0.50;;;17.60;99.90;;;;;;5031106;28;20032;-86
2023/08/01 11:18:45;;;;;;;2.05;0.85;;;17.50;99.90;;;;;;5025611;28;20034;-85
2023/08/01 11:21:10;;;;;;;1.27;0.60;;;17.40;99.90;;;;;;5036604;28;20575;-85
2023/08/01 11:23:36;;;;;;;0.70;0.60;;;17.40;99.90;;;;;;5039734;28;20115;-88
2023/08/01 11:26:08;;;;;;;2.40;0.52;;;17.30;99.90;;;;;;5041097;28;20025;-87
2023/08/01 11:28:34;;;;;;;1.85;0.60;;;17.30;99.90;;;;;;5046046;28;20507;-85
2023/08/01 11:30:59;;;;;;;2.70;1.13;;;17.10;99.90;;;;;;5040437;28;20104;-85
2023/08/01 11:33:25;;;;;;;1.35;0.98;;;17.10;99.90;;;;;;5039590;28;20032;-86
2023/08/01 11:35:57;;;;;;;1.85;1.10;;;16.90;99.90;;;;;;5029528;28;20029;-86
2023/08/01 11:38:25;;;;;;;1.42;0.50;;;16.80;99.90;;;;;;5030028;28;20029;-87
2023/08/01 11:40:51;;;;;;;0.60;0.40;;;16.70;99.90;;;;;;5038840;28;20063;-86
2023/08/01 11:43:17;;;;;;;2.00;0.40;;;16.60;99.90;;;;;;5035315;28;20033;-85
2023/08/01 11:45:54;;;;;;;0.60;0.32;;;16.60;99.90;;;;;;5049633;28;20025;-86
2023/08/01 11:48:24;;;;;;;1.40;0.30;;;16.50;99.90;;;;;;5034265;28;20033;-87
2023/08/01 11:50:56;;;;;;;2.15;0.50;;;16.40;99.90;;;;;;5035461;28;20609;-84
2023/08/01 11:53:22;;;;;;;1.88;0.65;;;16.40;99.90;;;;;;5037369;28;20063;-87
2023/08/01 11:55:52;;;;;;;1.02;0.30;;;16.50;99.90;;;;;;5045986;28;20035;-84
2023/08/01 11:58:35;;;;;;;0.57;0.35;;;16.50;99.90;;;;;;5036321;28;20121;-85
2023/08/01 12:01:03;;;;;;;1.38;0.60;;;16.60;99.90;;;;;;5034668;28;20037;-84
2023/08/01 12:03:29;;;;;;;0.30;0.15;;;16.60;99.90;;;;;;5035743;28;20550;-85
2023/08/01 12:06:11;;;;;;;1.20;0.30;;;16.70;99.90;;;;;;5041746;28;20025;-86
2023/08/01 12:08:37;;;;;;;1.40;0.60;;;16.80;99.90;;;;;;5038652;28;20013;-84
2023/08/01 12:11:03;;;;;;;1.20;0.70;;;16.80;99.90;;;;;;5029076;28;20022;-85
2023/08/01 12:13:30;;;;;;;1.98;0.85;;;17.00;99.90;;;;;;5036381;28;20025;-83
2023/08/01 12:15:57;;;;;;;0.40;0.40;;;17.10;99.90;;;;;;5038459;28;20025;-81
2023/08/01 12:18:27;;;;;;;0.75;0.60;;;17.30;99.90;;;;;;5041028;28;20025;-81
2023/08/01 12:20:53;;;;;;;0.63;0.60;;;17.50;99.90;;;;;;5034577;28;20036;-85
2023/08/01 12:23:19;;;;;;;0.60;0.50;;;17.70;99.90;;;;;;5036475;28;20129;-83
2023/08/01 12:25:46;;;;;;;0.63;0.63;;;17.80;99.90;;;;;;5041909;28;20056;-84
2023/08/01 12:28:15;;;;;;;0.82;0.65;;;17.90;99.90;;;;;;5036932;28;20634;-85
2023/08/01 12:30:41;;;;;;;0.45;0.40;;;18.00;99.90;;;;;;5035350;28;20029;-86
2023/08/01 12:33:10;;;;;;;0.95;0.77;;;18.10;99.90;;;;;;5033572;28;20029;-84
2023/08/01 12:35:40;;;;;;;0.50;0.50;;;18.10;99.90;;;;;;5028086;28;20546;-87
2023/08/01 12:38:07;;;;;;;1.63;0.70;;;18.00;99.90;;;;;;5033591;28;20026;-87
2023/08/01 12:40:32;;;;;;;2.05;0.40;;;17.90;99.90;;;;;;5035380;28;20026;-86
2023/08/01 12:42:58;;;;;;;0.68;0.60;;;17.80;99.90;;;;;;5047551;28;20089;-85
2023/08/01 12:45:24;;;;;;;0.65;0.32;;;17.70;99.90;;;;;;5035222;28;20111;-86
2023/08/01 12:47:50;;;;;;;0.55;0.40;;;17.60;99.90;;;;;;5033595;28;20029;-86
2023/08/01 12:50:15;;;;;;;0.60;0.60;;;17.50;99.90;;;;;;5043200;28;20071;-86
2023/08/01 12:52:41;;;;;;;1.23;0.50;;;17.40;99.90;;;;;;5040498;28;20029;-84
2023/08/01 12:55:07;;;;;;;0.73;0.43;;;17.40;99.90;;;;;;5033543;28;20025;-84
2023/08/01 12:57:33;;;;;;;0.60;0.47;;;17.20;99.90;;;;;;5033043;28;20029;-85